Time;durP1;ratioP1;P1;durP2;ratioP2;P2;SDS_P1;SDS_P2;PMS_P1;PMS_P2;Temp;Humidity;BMP_temperature;BMP_pressure;BME280_temperature;BME280_humidity;BME280_pressure;Samples;Min_cycle;Max_cycle;Signal;HPM_P1;HPM_P2
2021/05/30 00:00:05;;;;;;;0.20;0.20;;;15.10;81.70;;;;;;6217471;23;20011;-77
2021/05/30 00:02:33;;;;;;;0.10;0.10;;;15.10;81.70;;;;;;6244161;22;20004;-77
2021/05/30 00:04:59;;;;;;;0.10;0.10;;;15.20;80.60;;;;;;6244315;22;20007;-76
2021/05/30 00:07:25;;;;;;;0.47;0.47;;;15.20;80.50;;;;;;6215278;23;20083;-77
2021/05/30 00:09:53;;;;;;;0.30;0.20;;;15.10;81.30;;;;;;6241264;22;20428;-78
2021/05/30 00:12:19;;;;;;;;;;;15.10;81.90;;;;;;6243885;22;20004;-78
2021/05/30 00:14:47;;;;;;;0.30;0.30;;;15.20;80.80;;;;;;6243221;22;19907;-75
2021/05/30 00:17:14;;;;;;;0.45;0.45;;;15.20;81.20;;;;;;6217027;23;20012;-77
2021/05/30 00:19:41;;;;;;;0.10;0.10;;;15.20;82.00;;;;;;6244032;23;20001;-78
2021/05/30 00:22:07;;;;;;;0.10;0.10;;;15.20;79.70;;;;;;6243799;22;20083;-80
2021/05/30 00:24:32;;;;;;;0.10;0.10;;;15.20;80.30;;;;;;6244029;22;20282;-79
2021/05/30 00:26:58;;;;;;;0.10;0.10;;;15.20;80.20;;;;;;6243701;23;20694;-81
2021/05/30 00:29:24;;;;;;;0.47;0.40;;;15.10;80.50;;;;;;6243848;22;20000;-80
2021/05/30 00:31:50;;;;;;;0.10;0.10;;;15.10;81.30;;;;;;6243529;22;20080;-80
2021/05/30 00:34:15;;;;;;;0.10;0.10;;;15.10;82.20;;;;;;6243831;23;20012;-80
2021/05/30 00:36:41;;;;;;;1.05;0.30;;;15.10;81.00;;;;;;6216774;23;20457;-80
2021/05/30 00:39:07;;;;;;;0.35;0.20;;;15.10;81.70;;;;;;6243759;23;20011;-80
2021/05/30 00:41:33;;;;;;;0.10;0.10;;;15.10;81.60;;;;;;6217231;23;20011;-79
2021/05/30 00:43:59;;;;;;;0.10;0.10;;;15.10;82.30;;;;;;6243206;22;20054;-80
2021/05/30 00:46:25;;;;;;;1.65;0.88;;;15.10;81.30;;;;;;6216866;23;20007;-80
2021/05/30 00:48:51;;;;;;;0.10;0.10;;;15.00;82.20;;;;;;6243229;23;20007;-80
2021/05/30 00:51:17;;;;;;;0.10;0.10;;;15.00;81.10;;;;;;6244012;22;20075;-79
2021/05/30 00:53:44;;;;;;;0.10;0.10;;;15.00;80.80;;;;;;6242977;22;20016;-79
2021/05/30 00:56:15;;;;;;;11.40;0.52;;;15.00;81.80;;;;;;6217097;23;20294;-79
2021/05/30 00:58:41;;;;;;;0.03;0.03;;;15.00;81.80;;;;;;6243241;22;19996;-79
2021/05/30 01:01:08;;;;;;;0.10;0.10;;;15.00;81.40;;;;;;6244184;23;20000;-79
2021/05/30 01:03:38;;;;;;;0.10;0.10;;;15.00;80.40;;;;;;6242863;23;19999;-78
2021/05/30 01:06:04;;;;;;;0.10;0.10;;;15.00;80.20;;;;;;6243623;22;20004;-78
2021/05/30 01:08:31;;;;;;;0.10;0.10;;;15.00;80.10;;;;;;6242963;22;20007;-79
2021/05/30 01:10:58;;;;;;;0.10;0.10;;;14.90;79.70;;;;;;6216922;23;20342;-79
2021/05/30 01:13:25;;;;;;;0.10;0.10;;;14.90;81.00;;;;;;6242909;23;20058;-79
2021/05/30 01:15:52;;;;;;;0.10;0.10;;;14.90;82.00;;;;;;6216679;22;20006;-79
2021/05/30 01:18:21;;;;;;;4.28;0.65;;;14.70;83.30;;;;;;6242903;22;20079;-78
2021/05/30 01:20:48;;;;;;;0.00;0.00;;;14.70;82.20;;;;;;6243944;23;20004;-78
2021/05/30 01:23:15;;;;;;;;;;;14.60;82.90;;;;;;6243414;22;20007;-79
2021/05/30 01:25:41;;;;;;;0.20;0.20;;;14.60;82.90;;;;;;6243613;22;19903;-79
2021/05/30 01:28:06;;;;;;;0.28;0.20;;;14.60;83.10;;;;;;6216400;23;20008;-78
2021/05/30 01:30:34;;;;;;;0.40;0.40;;;14.60;83.40;;;;;;6243575;22;20386;-79
2021/05/30 01:33:00;;;;;;;0.20;0.20;;;14.70;82.90;;;;;;6242755;23;20227;-80
2021/05/30 01:35:26;;;;;;;0.10;0.10;;;14.70;83.80;;;;;;6243385;22;20000;-79
2021/05/30 01:37:52;;;;;;;0.52;0.52;;;14.60;85.10;;;;;;6242960;23;20007;-79
2021/05/30 01:40:20;;;;;;;0.20;0.20;;;14.60;85.20;;;;;;6243565;23;20000;-79
2021/05/30 01:42:47;;;;;;;0.30;0.30;;;14.60;84.30;;;;;;6242341;22;20370;-79
2021/05/30 01:45:14;;;;;;;1.17;1.10;;;14.50;84.40;;;;;;6216659;23;20019;-78
2021/05/30 01:47:41;;;;;;;1.35;0.30;;;14.50;85.10;;;;;;6242854;23;19991;-79
2021/05/30 01:50:12;;;;;;;0.10;0.10;;;14.60;85.10;;;;;;6216456;23;20054;-80
2021/05/30 01:52:38;;;;;;;0.10;0.10;;;14.50;86.10;;;;;;6242405;23;20004;-79
2021/05/30 01:55:06;;;;;;;0.90;0.90;;;14.50;85.70;;;;;;6243500;23;20010;-79
2021/05/30 01:57:47;;;;;;;0.70;0.57;;;14.50;85.90;;;;;;6243019;22;20328;-78
2021/05/30 02:00:14;;;;;;;1.33;0.68;;;14.50;85.30;;;;;;6243179;22;20440;-78
2021/05/30 02:02:41;;;;;;;1.55;1.45;;;14.50;85.80;;;;;;6242727;22;20001;-79
2021/05/30 02:05:07;;;;;;;0.10;0.10;;;14.50;85.10;;;;;;6216390;23;20008;-79
2021/05/30 02:07:34;;;;;;;0.10;0.10;;;14.50;85.60;;;;;;6216074;23;20004;-79
2021/05/30 02:10:04;;;;;;;0.40;0.40;;;14.50;87.10;;;;;;6242946;23;20004;-79
2021/05/30 02:12:31;;;;;;;0.20;0.20;;;14.50;86.80;;;;;;6242659;23;20083;-78
2021/05/30 02:14:57;;;;;;;0.17;0.17;;;14.50;88.00;;;;;;6243307;23;20348;-79
2021/05/30 02:17:24;;;;;;;0.10;0.10;;;14.40;88.10;;;;;;6215911;23;20004;-79
2021/05/30 02:19:51;;;;;;;0.20;0.20;;;14.40;89.50;;;;;;6215991;23;20093;-79
2021/05/30 02:22:16;;;;;;;0.93;0.63;;;14.40;90.10;;;;;;6242750;22;20023;-79
2021/05/30 02:24:45;;;;;;;2.25;1.52;;;14.40;90.30;;;;;;6243204;23;20331;-78
2021/05/30 02:27:12;;;;;;;1.38;0.52;;;14.30;90.10;;;;;;6242673;23;20007;-79
2021/05/30 02:29:43;;;;;;;0.30;0.30;;;14.30;90.60;;;;;;6243118;23;20000;-78
2021/05/30 02:32:12;;;;;;;0.30;0.30;;;14.30;90.60;;;;;;6242773;23;20010;-79
2021/05/30 02:34:40;;;;;;;0.60;0.60;;;14.40;89.50;;;;;;6243050;23;20444;-78
2021/05/30 02:37:06;;;;;;;0.20;0.20;;;14.30;88.60;;;;;;6215889;23;20007;-79
2021/05/30 02:39:32;;;;;;;0.10;0.10;;;14.30;88.40;;;;;;6242929;22;20519;-79
2021/05/30 02:41:58;;;;;;;1.77;0.73;;;14.40;90.40;;;;;;6242885;23;20031;-79
2021/05/30 02:44:24;;;;;;;0.45;0.35;;;14.30;90.00;;;;;;6243179;22;20004;-79
2021/05/30 02:46:49;;;;;;;1.08;0.93;;;14.40;89.20;;;;;;6242317;22;20004;-79
2021/05/30 02:49:15;;;;;;;3.67;1.17;;;14.40;88.60;;;;;;6243047;22;20000;-79
2021/05/30 02:51:41;;;;;;;6.65;1.17;;;14.40;88.90;;;;;;6242635;22;20036;-79
2021/05/30 02:54:07;;;;;;;2.38;0.68;;;14.40;88.80;;;;;;6244026;22;20016;-79
2021/05/30 02:56:33;;;;;;;1.10;0.73;;;14.50;87.60;;;;;;6244988;22;20046;-78
2021/05/30 02:58:58;;;;;;;4.22;1.58;;;14.40;88.40;;;;;;6244743;22;20439;-79
2021/05/30 03:01:24;;;;;;;0.85;0.65;;;14.50;87.80;;;;;;6244496;22;20000;-79
2021/05/30 03:03:50;;;;;;;0.45;0.45;;;14.40;86.10;;;;;;6217674;23;20004;-79
2021/05/30 03:06:16;;;;;;;0.90;0.38;;;14.40;85.90;;;;;;6245292;23;19996;-79
2021/05/30 03:08:42;;;;;;;0.20;0.20;;;14.40;85.80;;;;;;6217262;23;20004;-79
2021/05/30 03:11:08;;;;;;;0.00;0.00;;;14.40;85.60;;;;;;6245198;23;19996;-79
2021/05/30 03:13:34;;;;;;;0.10;0.10;;;14.40;85.00;;;;;;6244438;22;20374;-78
2021/05/30 03:16:00;;;;;;;0.43;0.40;;;14.30;84.80;;;;;;6244912;23;20235;-79
2021/05/30 03:18:26;;;;;;;0.57;0.40;;;14.30;84.40;;;;;;6244429;22;20374;-79
2021/05/30 03:20:51;;;;;;;0.22;0.22;;;14.40;84.20;;;;;;6217970;23;20008;-79
2021/05/30 03:23:17;;;;;;;0.35;0.35;;;14.30;83.50;;;;;;6243924;22;20004;-78
2021/05/30 03:25:43;;;;;;;3.00;1.85;;;14.30;83.80;;;;;;6218218;23;20438;-78
2021/05/30 03:28:10;;;;;;;2.58;1.05;;;14.30;83.10;;;;;;6244191;22;20000;-79
2021/05/30 03:30:35;;;;;;;0.30;0.30;;;14.40;82.50;;;;;;6244641;22;20424;-79
2021/05/30 03:33:01;;;;;;;0.88;0.70;;;14.40;82.20;;;;;;6244178;23;20110;-78
2021/05/30 03:35:28;;;;;;;0.20;0.20;;;14.50;82.30;;;;;;6217886;23;20015;-78
2021/05/30 03:37:55;;;;;;;0.10;0.10;;;14.50;81.30;;;;;;6217012;23;20011;-78
2021/05/30 03:41:00;;;;;;;0.10;0.10;;;14.50;81.30;;;;;;6244728;22;20075;-78
2021/05/30 03:43:13;;;;;;;0.35;0.20;;;14.50;81.30;;;;;;6239777;23;20335;-79
2021/05/30 03:45:39;;;;;;;0.10;0.10;;;14.50;81.70;;;;;;6244618;22;20007;-78
2021/05/30 03:48:06;;;;;;;0.80;0.47;;;14.50;81.60;;;;;;6244259;22;20000;-79
2021/05/30 03:50:33;;;;;;;0.65;0.47;;;14.60;81.40;;;;;;6244420;23;20072;-78
2021/05/30 03:52:58;;;;;;;0.35;0.20;;;14.50;81.70;;;;;;6243742;23;20390;-79
2021/05/30 03:55:24;;;;;;;0.28;0.28;;;14.50;81.60;;;;;;6244633;23;20000;-79
2021/05/30 03:57:50;;;;;;;0.10;0.10;;;14.60;82.10;;;;;;6243943;22;20008;-79
2021/05/30 04:00:18;;;;;;;0.10;0.10;;;14.50;82.80;;;;;;6244705;23;20004;-80
2021/05/30 04:02:45;;;;;;;0.10;0.10;;;14.50;83.10;;;;;;6244032;23;20001;-79
2021/05/30 04:05:12;;;;;;;0.10;0.10;;;14.60;83.70;;;;;;6216897;23;20376;-78
2021/05/30 04:07:38;;;;;;;0.10;0.10;;;14.60;83.30;;;;;;6243739;23;20233;-79
2021/05/30 04:10:07;;;;;;;0.10;0.10;;;14.60;83.50;;;;;;6244502;22;20000;-79
2021/05/30 04:12:34;;;;;;;0.10;0.10;;;14.60;83.70;;;;;;6243993;22;20035;-79
2021/05/30 04:15:00;;;;;;;0.10;0.10;;;14.60;85.00;;;;;;6244112;22;20011;-79
2021/05/30 04:17:25;;;;;;;0.10;0.10;;;14.70;83.70;;;;;;6243800;23;20328;-79
2021/05/30 04:19:51;;;;;;;0.00;0.00;;;14.60;84.40;;;;;;6244299;22;20503;-79
2021/05/30 04:22:17;;;;;;;0.03;0.03;;;14.70;84.70;;;;;;6216840;23;20012;-79
2021/05/30 04:24:43;;;;;;;0.10;0.10;;;14.70;86.40;;;;;;6217157;23;20141;-79
2021/05/30 04:27:09;;;;;;;0.15;0.15;;;14.80;86.70;;;;;;6217154;23;20000;-79
2021/05/30 04:29:34;;;;;;;0.10;0.10;;;14.80;82.90;;;;;;6244260;22;20027;-79
2021/05/30 04:32:02;;;;;;;0.10;0.10;;;14.80;85.70;;;;;;6216858;23;20008;-79
2021/05/30 04:34:30;;;;;;;0.10;0.10;;;14.80;84.00;;;;;;6217174;23;20089;-79
2021/05/30 04:36:56;;;;;;;0.63;0.30;;;14.80;84.00;;;;;;6243676;22;20004;-78
2021/05/30 04:39:22;;;;;;;0.10;0.10;;;14.80;84.80;;;;;;6217120;23;20520;-78
2021/05/30 04:41:48;;;;;;;0.20;0.20;;;14.90;83.50;;;;;;6243664;22;19996;-78
2021/05/30 04:44:13;;;;;;;10.98;4.15;;;14.90;85.30;;;;;;6243870;22;20000;-78
2021/05/30 04:46:39;;;;;;;0.10;0.10;;;14.90;85.00;;;;;;6243644;22;20008;-79
2021/05/30 04:49:05;;;;;;;0.10;0.10;;;14.90;86.20;;;;;;6243607;23;20008;-79
2021/05/30 04:51:31;;;;;;;0.10;0.10;;;14.90;86.30;;;;;;6217337;23;20016;-78
2021/05/30 04:53:58;;;;;;;0.10;0.10;;;15.00;86.40;;;;;;6242807;23;20043;-79
2021/05/30 04:56:25;;;;;;;0.10;0.10;;;15.00;85.20;;;;;;6243958;22;19996;-80
2021/05/30 04:58:51;;;;;;;0.00;0.00;;;15.00;85.50;;;;;;6243353;22;20005;-79
2021/05/30 05:01:17;;;;;;;0.00;0.00;;;15.00;85.20;;;;;;6216890;23;20011;-79
2021/05/30 05:03:42;;;;;;;0.10;0.10;;;15.10;85.90;;;;;;6243513;22;20176;-79
2021/05/30 05:06:08;;;;;;;0.00;0.00;;;15.10;86.00;;;;;;6244032;23;20327;-79
2021/05/30 05:08:34;;;;;;;0.20;0.20;;;15.10;86.70;;;;;;6243089;23;20015;-78
2021/05/30 05:11:00;;;;;;;0.10;0.10;;;15.10;85.40;;;;;;6243732;22;20000;-79
2021/05/30 05:13:26;;;;;;;0.10;0.10;;;15.10;84.70;;;;;;6243201;22;20087;-78
2021/05/30 05:15:53;;;;;;;0.00;0.00;;;15.20;86.40;;;;;;6216762;22;20231;-77
2021/05/30 05:18:21;;;;;;;0.68;0.17;;;15.20;87.90;;;;;;6243239;23;20000;-79
2021/05/30 05:20:47;;;;;;;0.10;0.10;;;15.20;87.20;;;;;;6243718;22;20079;-79
2021/05/30 05:23:17;;;;;;;10.60;5.43;;;15.30;86.50;;;;;;6242927;22;20435;-78
2021/05/30 05:25:43;;;;;;;0.10;0.10;;;15.30;87.00;;;;;;6243355;22;20000;-79
2021/05/30 05:28:09;;;;;;;0.10;0.10;;;15.30;86.00;;;;;;6243224;23;20011;-79
2021/05/30 05:30:35;;;;;;;0.10;0.10;;;15.40;86.00;;;;;;6243914;22;20079;-80
2021/05/30 05:33:01;;;;;;;0.10;0.10;;;15.40;85.30;;;;;;6242728;22;20012;-78
2021/05/30 05:35:27;;;;;;;0.00;0.00;;;15.50;86.30;;;;;;6243578;22;20335;-79
2021/05/30 05:37:57;;;;;;;0.20;0.20;;;15.50;87.30;;;;;;6243221;23;20019;-79
2021/05/30 05:40:25;;;;;;;0.00;0.00;;;15.50;85.10;;;;;;6243584;22;20107;-78
2021/05/30 05:42:51;;;;;;;0.00;0.00;;;15.60;86.10;;;;;;6242869;22;19996;-78
2021/05/30 05:45:18;;;;;;;0.10;0.10;;;15.60;87.10;;;;;;6243397;23;20000;-78
2021/05/30 05:47:44;;;;;;;0.08;0.08;;;15.70;86.40;;;;;;6243087;22;20031;-77
2021/05/30 05:50:14;;;;;;;0.00;0.00;;;15.70;85.60;;;;;;6243174;22;20050;-78
2021/05/30 05:52:41;;;;;;;0.10;0.10;;;15.80;86.70;;;;;;6242643;22;20044;-77
2021/05/30 05:55:08;;;;;;;0.10;0.10;;;15.90;84.70;;;;;;6216032;23;20035;-77
2021/05/30 05:57:36;;;;;;;0.10;0.10;;;15.90;89.40;;;;;;6243044;22;20020;-80
2021/05/30 06:00:07;;;;;;;0.00;0.00;;;16.00;88.50;;;;;;6243420;22;20034;-78
2021/05/30 06:02:33;;;;;;;0.10;0.10;;;16.10;87.00;;;;;;6216071;23;20004;-80
2021/05/30 06:04:59;;;;;;;0.00;0.00;;;16.20;86.50;;;;;;6243192;22;20007;-79
2021/05/30 06:07:24;;;;;;;0.13;0.13;;;16.30;83.40;;;;;;6242533;22;20040;-78
2021/05/30 06:09:53;;;;;;;0.10;0.10;;;16.40;85.10;;;;;;6243506;22;19996;-79
2021/05/30 06:12:19;;;;;;;0.68;0.30;;;16.40;83.70;;;;;;6242624;22;20007;-79
2021/05/30 06:14:45;;;;;;;0.00;0.00;;;16.40;83.80;;;;;;6243417;22;20012;-79
2021/05/30 06:17:12;;;;;;;0.50;0.40;;;16.50;83.20;;;;;;6242559;23;20027;-79
2021/05/30 06:19:38;;;;;;;1.48;0.70;;;16.50;82.50;;;;;;6243086;23;20257;-78
2021/05/30 06:22:06;;;;;;;0.68;0.65;;;16.60;81.60;;;;;;6242555;23;20312;-78
2021/05/30 06:24:33;;;;;;;1.77;0.65;;;16.60;82.20;;;;;;6243300;23;20339;-78
2021/05/30 06:26:59;;;;;;;0.17;0.17;;;16.70;81.90;;;;;;6242874;23;20087;-79
2021/05/30 06:29:25;;;;;;;5.13;1.17;;;16.70;80.60;;;;;;6245248;22;20163;-78
2021/05/30 06:31:51;;;;;;;0.10;0.10;;;16.80;80.70;;;;;;6244846;22;20419;-78
2021/05/30 06:34:17;;;;;;;1.58;0.80;;;16.80;80.80;;;;;;6244826;22;20111;-78
2021/05/30 06:36:43;;;;;;;0.35;0.35;;;16.90;81.60;;;;;;6245061;22;20000;-80
2021/05/30 06:39:10;;;;;;;0.32;0.32;;;17.00;80.60;;;;;;6244816;22;20000;-78
2021/05/30 06:41:39;;;;;;;0.30;0.22;;;17.00;81.10;;;;;;6245378;22;20000;-79
2021/05/30 06:44:05;;;;;;;0.00;0.00;;;17.00;79.80;;;;;;6218422;23;20061;-79
2021/05/30 06:46:32;;;;;;;0.10;0.10;;;17.10;79.70;;;;;;6244795;22;20000;-77
2021/05/30 06:48:58;;;;;;;0.10;0.10;;;17.20;82.70;;;;;;6244456;22;19996;-79
2021/05/30 06:51:28;;;;;;;1.02;0.45;;;17.30;81.50;;;;;;6245078;23;20002;-77
2021/05/30 06:53:55;;;;;;;0.35;0.20;;;17.40;81.90;;;;;;6244322;23;20012;-80
2021/05/30 06:56:20;;;;;;;0.10;0.10;;;17.40;81.80;;;;;;6218414;23;20015;-78
2021/05/30 06:58:46;;;;;;;0.85;0.52;;;17.50;83.90;;;;;;6244015;23;20004;-77
2021/05/30 07:01:12;;;;;;;0.10;0.10;;;17.60;81.60;;;;;;6245335;23;20375;-79
2021/05/30 07:03:39;;;;;;;2.65;0.40;;;17.60;80.80;;;;;;6244350;23;20057;-78
2021/05/30 07:06:05;;;;;;;0.20;0.20;;;17.70;83.70;;;;;;6244882;23;19996;-80
2021/05/30 07:08:31;;;;;;;0.10;0.10;;;17.70;83.10;;;;;;6217756;23;20088;-78
2021/05/30 07:10:57;;;;;;;0.00;0.00;;;17.80;77.60;;;;;;6244974;22;20019;-79
2021/05/30 07:13:23;;;;;;;0.10;0.10;;;17.80;79.50;;;;;;6244095;22;20050;-77
2021/05/30 07:15:51;;;;;;;0.35;0.35;;;17.80;78.40;;;;;;6245451;22;20031;-78
2021/05/30 07:18:18;;;;;;;0.00;0.00;;;18.00;80.00;;;;;;6244094;22;20004;-76
2021/05/30 07:20:44;;;;;;;0.00;0.00;;;18.00;77.30;;;;;;6244573;23;20008;-76
2021/05/30 07:23:11;;;;;;;0.05;0.05;;;18.00;78.60;;;;;;6244588;22;20005;-77
2021/05/30 07:25:37;;;;;;;0.90;0.65;;;18.10;76.50;;;;;;6245208;22;20020;-78
2021/05/30 07:28:03;;;;;;;0.20;0.20;;;18.10;77.40;;;;;;6243983;22;20575;-78
2021/05/30 07:30:29;;;;;;;0.20;0.10;;;18.10;77.00;;;;;;6244650;23;19992;-77
2021/05/30 07:32:55;;;;;;;0.08;0.08;;;18.20;78.90;;;;;;6244785;23;20007;-79
2021/05/30 07:35:21;;;;;;;0.00;0.00;;;18.20;77.90;;;;;;6244433;22;20008;-79
2021/05/30 07:37:46;;;;;;;0.00;0.00;;;18.30;76.00;;;;;;6243974;23;20038;-79
2021/05/30 07:40:12;;;;;;;0.20;0.20;;;18.30;77.20;;;;;;6243769;22;20004;-81
2021/05/30 07:42:38;;;;;;;0.30;0.30;;;18.30;72.90;;;;;;6243221;22;20581;-80
2021/05/30 07:45:05;;;;;;;0.03;0.03;;;18.40;73.90;;;;;;6244227;23;20004;-79
2021/05/30 07:47:31;;;;;;;0.00;0.00;;;18.40;71.30;;;;;;6244138;23;19996;-78
2021/05/30 07:49:57;;;;;;;0.10;0.10;;;18.40;70.70;;;;;;6244548;23;20008;-82
2021/05/30 07:52:23;;;;;;;0.40;0.20;;;18.50;71.20;;;;;;6208638;23;20391;-77
2021/05/30 07:54:48;;;;;;;0.25;0.15;;;18.60;71.70;;;;;;6187756;23;20043;-80
2021/05/30 07:57:14;;;;;;;0.00;0.00;;;18.60;69.20;;;;;;6213226;23;20408;-79
2021/05/30 07:59:40;;;;;;;0.28;0.28;;;18.60;70.40;;;;;;6213991;23;20306;-84
2021/05/30 08:02:06;;;;;;;0.52;0.30;;;18.70;67.30;;;;;;6213688;23;20009;-77
2021/05/30 08:04:32;;;;;;;0.10;0.10;;;18.80;70.80;;;;;;6213475;23;20004;-78
2021/05/30 08:06:57;;;;;;;0.80;0.80;;;18.90;68.30;;;;;;6213514;23;20039;-79
2021/05/30 08:09:23;;;;;;;0.10;0.10;;;18.90;69.00;;;;;;6187553;23;20009;-79
2021/05/30 08:11:49;;;;;;;0.00;0.00;;;19.00;67.50;;;;;;6213495;23;20008;-83
2021/05/30 08:14:14;;;;;;;0.10;0.10;;;19.00;66.40;;;;;;6214032;23;20471;-82
2021/05/30 08:16:41;;;;;;;0.10;0.10;;;19.00;66.10;;;;;;6187168;23;20083;-78
2021/05/30 08:19:08;;;;;;;0.20;0.20;;;19.00;65.80;;;;;;6213953;23;20466;-79
2021/05/30 08:21:34;;;;;;;0.00;0.00;;;19.10;65.50;;;;;;6214138;23;19997;-79
2021/05/30 08:23:59;;;;;;;0.40;0.40;;;19.10;64.90;;;;;;6186483;23;20055;-81
2021/05/30 08:26:25;;;;;;;0.10;0.10;;;19.10;69.00;;;;;;6214158;23;20328;-79
2021/05/30 08:28:51;;;;;;;0.03;0.03;;;19.20;68.00;;;;;;6213042;23;20420;-78
2021/05/30 08:31:16;;;;;;;0.10;0.10;;;19.30;67.40;;;;;;6214281;23;20008;-78
2021/05/30 08:33:42;;;;;;;0.00;0.00;;;19.40;69.00;;;;;;6212828;23;20015;-77
2021/05/30 08:36:08;;;;;;;0.10;0.10;;;19.50;67.60;;;;;;6213568;23;20039;-79
2021/05/30 08:38:33;;;;;;;0.10;0.10;;;19.50;66.50;;;;;;6213425;23;20024;-79
2021/05/30 08:40:59;;;;;;;0.00;0.00;;;19.60;69.20;;;;;;6213812;23;20047;-76
2021/05/30 08:43:26;;;;;;;0.10;0.10;;;19.70;66.30;;;;;;6213258;23;20070;-80
2021/05/30 08:45:52;;;;;;;0.10;0.10;;;19.70;63.80;;;;;;6204420;23;20000;-78
2021/05/30 08:48:18;;;;;;;0.10;0.10;;;19.60;65.30;;;;;;6209307;23;20004;-76
2021/05/30 08:50:44;;;;;;;0.30;0.30;;;19.60;65.30;;;;;;6209149;23;20007;-81
2021/05/30 08:53:10;;;;;;;0.00;0.00;;;19.80;66.70;;;;;;6230265;23;20016;-78
2021/05/30 08:55:38;;;;;;;0.10;0.10;;;19.80;66.90;;;;;;6244137;23;20000;-74
2021/05/30 08:58:05;;;;;;;0.30;0.30;;;19.90;67.00;;;;;;6242370;23;20396;-77
2021/05/30 09:00:32;;;;;;;0.10;0.10;;;19.80;58.90;;;;;;6243937;23;20007;-77
2021/05/30 09:03:14;;;;;;;;;;;19.80;61.60;;;;;;6243875;23;20087;-76
2021/05/30 09:05:41;;;;;;;0.00;0.00;;;19.90;61.60;;;;;;6243884;22;19910;-77
2021/05/30 09:08:08;;;;;;;;;;;20.00;62.10;;;;;;6243754;22;20424;-77
2021/05/30 09:10:34;;;;;;;0.10;0.10;;;19.90;62.80;;;;;;6244160;22;19904;-75
2021/05/30 09:13:27;;;;;;;0.22;0.10;;;19.90;62.50;;;;;;6243258;22;20301;-77
2021/05/30 09:18:33;;;;;;;0.13;0.13;;;20.00;63.40;;;;;;6243125;22;20028;-77
2021/05/30 09:21:12;;;;;;;0.03;0.03;;;20.10;63.00;;;;;;6243290;22;20062;-78
2021/05/30 09:23:44;;;;;;;0.85;0.43;;;20.20;61.60;;;;;;6241977;23;20007;-78
2021/05/30 09:26:20;;;;;;;0.00;0.00;;;20.30;61.80;;;;;;6242958;23;20163;-78
2021/05/30 09:29:09;;;;;;;0.10;0.10;;;20.30;60.40;;;;;;6241765;22;20084;-77
2021/05/30 09:31:53;;;;;;;0.17;0.15;;;20.30;62.20;;;;;;6215866;23;20091;-77
2021/05/30 09:34:33;;;;;;;1.95;0.30;;;20.30;59.50;;;;;;6242688;23;20012;-76
2021/05/30 09:36:59;;;;;;;0.45;0.30;;;20.30;58.20;;;;;;6242556;22;20530;-80
2021/05/30 09:39:41;;;;;;;0.00;0.00;;;20.40;61.90;;;;;;6242368;23;20163;-77
2021/05/30 09:42:36;;;;;;;0.00;0.00;;;20.40;60.50;;;;;;6216174;23;20035;-76
2021/05/30 09:45:11;;;;;;;0.10;0.10;;;20.50;60.10;;;;;;6242830;22;20067;-79
2021/05/30 09:47:45;;;;;;;0.15;0.15;;;20.70;63.30;;;;;;6242347;22;20004;-76
2021/05/30 09:50:17;;;;;;;0.25;0.22;;;20.80;60.30;;;;;;6242878;23;19996;-78
2021/05/30 09:52:47;;;;;;;0.20;0.20;;;20.80;59.20;;;;;;6241770;22;20512;-78
2021/05/30 09:55:21;;;;;;;0.00;0.00;;;20.80;63.20;;;;;;6242535;22;20016;-79
2021/05/30 09:58:14;;;;;;;0.20;0.20;;;20.80;62.00;;;;;;6242359;22;20011;-78
2021/05/30 10:00:42;;;;;;;0.50;0.43;;;20.80;59.30;;;;;;6242545;22;20070;-79
2021/05/30 10:03:08;;;;;;;0.00;0.00;;;20.80;60.10;;;;;;6242207;23;20440;-78
2021/05/30 10:05:35;;;;;;;0.20;0.20;;;20.80;60.80;;;;;;6242593;22;20000;-77
2021/05/30 10:08:02;;;;;;;0.00;0.00;;;20.90;63.00;;;;;;6242382;22;20004;-76
2021/05/30 10:10:28;;;;;;;0.10;0.10;;;21.10;59.30;;;;;;6242291;22;20080;-77
2021/05/30 10:12:54;;;;;;;0.00;0.00;;;21.20;59.90;;;;;;6242067;23;20011;-80
2021/05/30 10:15:21;;;;;;;0.82;0.47;;;21.20;59.10;;;;;;6243360;22;20004;-78
2021/05/30 10:17:48;;;;;;;0.10;0.10;;;21.30;59.60;;;;;;6242167;22;19996;-80
2021/05/30 10:20:20;;;;;;;0.75;0.75;;;21.30;61.70;;;;;;6215789;23;20390;-78
2021/05/30 10:22:51;;;;;;;1.10;0.95;;;21.40;57.40;;;;;;6242101;22;20000;-78
2021/05/30 10:25:26;;;;;;;0.30;0.30;;;21.50;57.10;;;;;;6243137;22;20162;-78
2021/05/30 10:28:11;;;;;;;0.10;0.10;;;21.60;59.60;;;;;;6241927;22;20011;-78
2021/05/30 10:30:40;;;;;;;0.10;0.10;;;21.60;55.80;;;;;;6243011;23;20000;-78
2021/05/30 10:33:26;;;;;;;0.10;0.10;;;21.80;56.50;;;;;;6241932;22;20428;-80
2021/05/30 10:35:56;;;;;;;0.10;0.10;;;21.90;56.30;;;;;;6242639;22;20007;-79
2021/05/30 10:38:39;;;;;;;0.57;0.50;;;22.00;54.60;;;;;;6215390;23;20000;-78
2021/05/30 10:41:19;;;;;;;0.10;0.10;;;22.20;53.70;;;;;;6242465;23;20004;-78
2021/05/30 10:43:46;;;;;;;0.10;0.10;;;22.30;53.40;;;;;;6242113;22;20604;-79
2021/05/30 10:46:12;;;;;;;0.98;0.32;;;22.40;53.00;;;;;;6242719;23;20000;-79
2021/05/30 10:48:39;;;;;;;0.10;0.10;;;22.60;53.10;;;;;;6242251;22;20498;-81
2021/05/30 10:51:21;;;;;;;0.10;0.10;;;22.80;52.90;;;;;;6242224;23;20435;-80
2021/05/30 10:53:52;;;;;;;0.10;0.10;;;23.00;53.00;;;;;;6241683;22;20648;-80
2021/05/30 10:56:22;;;;;;;0.10;0.10;;;23.20;47.10;;;;;;6242471;23;20008;-79
2021/05/30 10:59:03;;;;;;;0.00;0.00;;;23.20;49.80;;;;;;6214803;22;20377;-80
2021/05/30 11:01:35;;;;;;;0.10;0.10;;;23.20;56.00;;;;;;6241979;22;20004;-81
2021/05/30 11:04:22;;;;;;;0.10;0.10;;;23.20;52.70;;;;;;6215070;23;20049;-81
2021/05/30 11:06:49;;;;;;;0.57;0.57;;;23.10;52.20;;;;;;6242063;22;20077;-80
2021/05/30 11:09:15;;;;;;;0.10;0.10;;;23.10;53.40;;;;;;6215662;23;20004;-80
2021/05/30 11:11:42;;;;;;;0.10;0.10;;;23.10;52.60;;;;;;6241638;23;20004;-82
2021/05/30 11:14:13;;;;;;;0.40;0.40;;;23.20;53.30;;;;;;6242881;22;20845;-81
2021/05/30 11:16:43;;;;;;;0.10;0.10;;;23.20;52.30;;;;;;6244522;23;20001;-80
2021/05/30 11:19:11;;;;;;;0.10;0.10;;;23.30;52.50;;;;;;6243305;22;20607;-79
2021/05/30 11:21:42;;;;;;;7.13;0.70;;;23.30;49.40;;;;;;6244220;23;20308;-80
2021/05/30 11:24:12;;;;;;;0.22;0.22;;;23.40;48.30;;;;;;6243858;22;20411;-78
2021/05/30 11:26:38;;;;;;;0.10;0.10;;;23.60;49.20;;;;;;6243971;23;20004;-79
2021/05/30 11:29:06;;;;;;;0.10;0.10;;;23.70;47.60;;;;;;6243724;23;20004;-80
2021/05/30 11:31:33;;;;;;;0.10;0.10;;;24.20;46.20;;;;;;6244451;23;20058;-80
2021/05/30 11:34:01;;;;;;;0.10;0.10;;;24.40;49.10;;;;;;6243082;22;20016;-79
2021/05/30 11:36:30;;;;;;;0.10;0.10;;;24.50;46.80;;;;;;6244668;22;20004;-78
2021/05/30 11:38:58;;;;;;;0.10;0.10;;;24.50;46.60;;;;;;6243460;23;20058;-79
2021/05/30 11:41:33;;;;;;;0.35;0.35;;;24.70;46.80;;;;;;6244535;23;20000;-80
2021/05/30 11:44:03;;;;;;;0.10;0.10;;;24.80;48.50;;;;;;6242497;22;20395;-79
2021/05/30 11:46:45;;;;;;;0.00;0.00;;;24.70;44.40;;;;;;6242693;22;20023;-80
2021/05/30 11:49:20;;;;;;;0.32;0.32;;;24.50;44.50;;;;;;6242244;22;20011;-78
2021/05/30 11:51:48;;;;;;;0.10;0.10;;;24.00;44.90;;;;;;6242628;22;20039;-78
2021/05/30 11:54:15;;;;;;;0.10;0.10;;;24.10;45.40;;;;;;6242388;22;20011;-78
2021/05/30 11:56:42;;;;;;;0.10;0.10;;;24.30;45.10;;;;;;6243472;22;19996;-78
2021/05/30 11:59:09;;;;;;;0.10;0.10;;;24.80;44.60;;;;;;6243014;22;20004;-80
2021/05/30 12:01:49;;;;;;;0.20;0.20;;;25.20;42.30;;;;;;6243425;23;20048;-79
2021/05/30 12:04:26;;;;;;;0.57;0.35;;;27.40;43.80;;;;;;6243542;22;20004;-80
2021/05/30 12:06:53;;;;;;;0.20;0.20;;;32.10;36.10;;;;;;6242893;22;20083;-80
2021/05/30 12:09:20;;;;;;;0.10;0.10;;;35.20;29.20;;;;;;6243058;23;20009;-80
2021/05/30 12:11:45;;;;;;;;;;;33.50;29.90;;;;;;6244188;22;20000;-80
2021/05/30 12:14:11;;;;;;;0.20;0.20;;;31.40;30.30;;;;;;6243455;23;20366;-80
2021/05/30 12:16:37;;;;;;;0.30;0.30;;;30.40;34.20;;;;;;6243612;23;20058;-80
2021/05/30 12:19:05;;;;;;;0.30;0.30;;;34.70;28.60;;;;;;6242393;22;20466;-80
2021/05/30 12:22:00;;;;;;;0.28;0.28;;;39.80;26.60;;;;;;6243906;22;20004;-81
2021/05/30 12:24:35;;;;;;;0.10;0.10;;;44.50;23.20;;;;;;6211009;22;20007;-81
2021/05/30 12:27:01;;;;;;;0.20;0.20;;;42.50;22.00;;;;;;6242774;22;20459;-80
2021/05/30 12:29:28;;;;;;;0.10;0.10;;;38.90;23.20;;;;;;6243339;23;20000;-80
2021/05/30 12:31:54;;;;;;;0.25;0.25;;;35.10;25.10;;;;;;6217103;23;20031;-81
2021/05/30 12:34:33;;;;;;;1.08;0.90;;;34.00;25.70;;;;;;6243223;22;20015;-81
2021/05/30 12:36:58;;;;;;;0.10;0.10;;;37.20;23.10;;;;;;6216409;23;20090;-80
2021/05/30 12:39:26;;;;;;;0.10;0.10;;;36.60;27.90;;;;;;6242206;22;20342;-79
2021/05/30 12:41:59;;;;;;;0.08;0.08;;;33.50;32.00;;;;;;6243396;22;20043;-80
2021/05/30 12:45:05;;;;;;;0.10;0.10;;;32.10;35.40;;;;;;6243142;22;20008;-80
2021/05/30 12:47:51;;;;;;;0.03;0.03;;;31.40;39.60;;;;;;6185126;23;20004;-80
2021/05/30 12:50:16;;;;;;;0.10;0.10;;;29.60;38.50;;;;;;6242579;22;20020;-78
2021/05/30 12:52:54;;;;;;;2.63;0.20;;;27.40;41.00;;;;;;6215803;23;20023;-80
2021/05/30 12:55:36;;;;;;;;;;;25.70;44.20;;;;;;6243658;22;20012;-78